DBDHM EDDL-EDNY
Flight info
| Callsign | DBDHM |
|---|---|
| Flight time | N/A |
| Altitude | 41000 |
| Route | DODEN1T/23L DODEN Y852 TUSUK DCT ULNOK L607 SUNEG T721 LAMGO/N0475F270 T721 SUL/N0439F210 Z714 LEBSO N851 LOKTA T122 ARFAS DCT |
| Aircraft | C700/M-SBDGHM1RWXY/LB2 |
Departure
| Time | 2026-05-05 12:36 |
|---|---|
| Airport | Düsseldorf Airport (EDDL) |
Arrival
| Time | N/A |
|---|---|
| Airport | Bodensee Airport Friedrichshafen (EDNY) |
| Time | Latitude | Longitude | Altitude | Speed | Heading |
|---|---|---|---|---|---|
| 2026-05-05 12:09 | 51.28757 | 6.77744 | 127 ft | 0 kts | 233° |
| 2026-05-05 12:10 | 51.28752 | 6.77735 | 128 ft | 0 kts | 233° |
| 2026-05-05 12:25 | 51.28757 | 6.77744 | 127 ft | 4 kts | 234° |
| 2026-05-05 12:25 | 51.28771 | 6.77780 | 130 ft | 4 kts | 245° |
| 2026-05-05 12:26 | 51.28778 | 6.77819 | 131 ft | 4 kts | 277° |
| 2026-05-05 12:26 | 51.28772 | 6.77845 | 131 ft | 0 kts | 323° |
| 2026-05-05 12:29 | 51.28775 | 6.77842 | 131 ft | 3 kts | 324° |
| 2026-05-05 12:29 | 51.28811 | 6.77800 | 128 ft | 8 kts | 325° |
| 2026-05-05 12:29 | 51.28847 | 6.77758 | 131 ft | 0 kts | 323° |
| 2026-05-05 12:30 | 51.28856 | 6.77748 | 131 ft | 5 kts | 323° |
| 2026-05-05 12:30 | 51.28898 | 6.77701 | 131 ft | 9 kts | 333° |
| 2026-05-05 12:30 | 51.28954 | 6.77750 | 131 ft | 11 kts | 51° |
| 2026-05-05 12:31 | 51.29007 | 6.77862 | 131 ft | 14 kts | 53° |
| 2026-05-05 12:31 | 51.29071 | 6.77997 | 131 ft | 16 kts | 52° |
| 2026-05-05 12:31 | 51.29146 | 6.78153 | 131 ft | 19 kts | 52° |
| 2026-05-05 12:31 | 51.29233 | 6.78294 | 132 ft | 10 kts | 36° |
| 2026-05-05 12:32 | 51.29274 | 6.78342 | 132 ft | 4 kts | 38° |
| 2026-05-05 12:32 | 51.29309 | 6.78384 | 132 ft | 8 kts | 37° |
| 2026-05-05 12:32 | 51.29364 | 6.78448 | 133 ft | 11 kts | 34° |
| 2026-05-05 12:32 | 51.29391 | 6.78466 | 133 ft | 0 kts | 12° |
| 2026-05-05 12:34 | 51.29396 | 6.78467 | 133 ft | 5 kts | 10° |
| 2026-05-05 12:34 | 51.29467 | 6.78456 | 136 ft | 14 kts | 328° |
| 2026-05-05 12:35 | 51.29467 | 6.78357 | 135 ft | 0 kts | 232° |
| 2026-05-05 12:35 | 51.29453 | 6.78328 | 135 ft | 25 kts | 232° |
| 2026-05-05 12:36 | 51.29134 | 6.77654 | 129 ft | 125 kts | 232° |
| 2026-05-05 12:36 | 51.28444 | 6.76255 | 466 ft | 183 kts | 236° |
| 2026-05-05 12:36 | 51.27638 | 6.74586 | 1475 ft | 207 kts | 235° |
| 2026-05-05 12:36 | 51.26794 | 6.72723 | 2512 ft | 213 kts | 239° |
| 2026-05-05 12:37 | 51.25848 | 6.70635 | 2637 ft | 248 kts | 231° |
| 2026-05-05 12:37 | 51.24720 | 6.68468 | 2623 ft | 262 kts | 230° |
| 2026-05-05 12:37 | 51.23566 | 6.66288 | 3026 ft | 258 kts | 230° |
| 2026-05-05 12:37 | 51.22307 | 6.63989 | 3071 ft | 285 kts | 223° |
| 2026-05-05 12:38 | 51.20562 | 6.62676 | 4769 ft | 285 kts | 194° |
| 2026-05-05 12:38 | 51.18537 | 6.62298 | 4893 ft | 296 kts | 176° |
| 2026-05-05 12:38 | 51.16646 | 6.63292 | 4870 ft | 280 kts | 148° |
| 2026-05-05 12:38 | 51.15423 | 6.65572 | 5276 ft | 275 kts | 112° |
| 2026-05-05 12:39 | 51.15224 | 6.68501 | 7197 ft | 267 kts | 91° |
| 2026-05-05 12:39 | 51.15361 | 6.71512 | 8743 ft | 277 kts | 87° |
| 2026-05-05 12:39 | 51.15561 | 6.74608 | 10367 ft | 286 kts | 87° |
| 2026-05-05 12:39 | 51.15728 | 6.77927 | 11469 ft | 314 kts | 89° |
| 2026-05-05 12:40 | 51.15866 | 6.81401 | 12984 ft | 321 kts | 89° |
| 2026-05-05 12:40 | 51.15995 | 6.85016 | 14325 ft | 332 kts | 89° |
| 2026-05-05 12:40 | 51.16114 | 6.88741 | 15477 ft | 339 kts | 89° |
| 2026-05-05 12:40 | 51.16237 | 6.92532 | 16693 ft | 344 kts | 89° |
| 2026-05-05 12:41 | 51.16358 | 6.96318 | 17854 ft | 349 kts | 89° |
| 2026-05-05 12:41 | 51.16480 | 7.00240 | 18900 ft | 355 kts | 89° |
| 2026-05-05 12:41 | 51.16580 | 7.04209 | 20026 ft | 360 kts | 90° |
| 2026-05-05 12:41 | 51.16646 | 7.08250 | 21027 ft | 367 kts | 91° |
| 2026-05-05 12:42 | 51.16705 | 7.12304 | 22016 ft | 374 kts | 91° |
| 2026-05-05 12:42 | 51.16769 | 7.16498 | 22991 ft | 380 kts | 92° |
| 2026-05-05 12:42 | 51.16799 | 7.20744 | 23888 ft | 386 kts | 93° |
| 2026-05-05 12:42 | 51.16810 | 7.25073 | 24693 ft | 392 kts | 93° |
| 2026-05-05 12:43 | 51.16816 | 7.29412 | 25459 ft | 399 kts | 93° |
| 2026-05-05 12:43 | 51.16821 | 7.33877 | 26226 ft | 405 kts | 93° |